createdAt,value
2019-05-21T00:00:55.509Z,70.27
2019-05-21T00:03:23.798Z,88.50
2019-05-21T00:05:52.069Z,80.30
2019-05-21T00:08:20.351Z,64.93
2019-05-21T00:10:48.629Z,79.43
2019-05-21T00:13:16.911Z,72.27
2019-05-21T00:15:45.174Z,74.40
2019-05-21T00:18:13.467Z,78.30
2019-05-21T00:20:41.741Z,71.47
2019-05-21T00:23:10.040Z,78.17
2019-05-21T00:25:38.311Z,92.87
2019-05-21T00:28:24.654Z,78.80
2019-05-21T00:31:10.813Z,86.83
2019-05-21T00:33:56.866Z,94.03
2019-05-21T00:36:43.204Z,81.17
2019-05-21T00:39:29.380Z,81.10
2019-05-21T00:42:00.048Z,83.37
2019-05-21T00:44:29.724Z,102.50
2019-05-21T00:46:58.050Z,105.90
2019-05-21T00:49:26.357Z,103.37
2019-05-21T00:52:06.425Z,88.63
2019-05-21T00:54:24.761Z,97.70
2019-05-21T00:56:53.014Z,115.23
2019-05-21T00:59:21.287Z,76.03
2019-05-21T01:01:49.611Z,106.43
2019-05-21T01:04:17.937Z,93.93
2019-05-21T01:06:46.203Z,96.47
2019-05-21T01:09:14.531Z,95.17
2019-05-21T01:11:42.839Z,131.53
2019-05-21T01:14:11.178Z,128.27
2019-05-21T01:16:39.533Z,106.63
2019-05-21T01:19:07.796Z,134.43
2019-05-21T01:21:36.096Z,114.10
2019-05-21T01:24:04.533Z,105.20
2019-05-21T01:26:32.817Z,129.47
2019-05-21T01:29:01.141Z,127.27
2019-05-21T01:31:29.468Z,126.60
2019-05-21T01:33:57.793Z,134.63
2019-05-21T01:36:26.092Z,139.43
2019-05-21T01:38:54.364Z,110.57
2019-05-21T01:41:22.673Z,122.00
2019-05-21T01:43:50.932Z,135.23
2019-05-21T01:46:19.227Z,118.10
2019-05-21T01:48:47.509Z,132.80
2019-05-21T01:51:15.803Z,123.87
2019-05-21T01:53:44.063Z,163.27
2019-05-21T01:56:12.424Z,126.23
2019-05-21T01:58:40.680Z,133.30
2019-05-21T02:01:08.969Z,129.93
2019-05-21T02:03:37.240Z,116.63
2019-05-21T02:06:05.530Z,130.07
2019-05-21T02:08:33.814Z,137.17
2019-05-21T02:11:02.120Z,128.33
2019-05-21T02:13:30.390Z,121.87
2019-05-21T02:15:58.672Z,107.20
2019-05-21T02:18:26.964Z,108.63
2019-05-21T02:20:55.345Z,125.47
2019-05-21T02:23:23.675Z,126.17
2019-05-21T02:25:52.020Z,127.73
2019-05-21T02:28:20.306Z,114.83
2019-05-21T02:30:48.590Z,127.17
2019-05-21T02:33:16.890Z,103.10
2019-05-21T02:35:54.227Z,111.47
2019-05-21T02:38:15.603Z,99.57
2019-05-21T02:40:43.942Z,101.50
2019-05-21T02:43:12.251Z,89.80
2019-05-21T02:45:40.573Z,80.27
2019-05-21T02:48:08.869Z,80.67
2019-05-21T02:50:37.134Z,87.97
2019-05-21T02:53:05.505Z,103.57
2019-05-21T02:55:33.849Z,99.40
2019-05-21T02:58:02.141Z,98.90
2019-05-21T03:00:30.413Z,79.17
2019-05-21T03:02:58.821Z,88.97
2019-05-21T03:05:27.328Z,79.10
2019-05-21T03:07:55.613Z,88.83
2019-05-21T03:10:23.882Z,74.27
2019-05-21T03:12:52.216Z,85.13
2019-05-21T03:15:20.516Z,77.40
2019-05-21T03:17:48.896Z,76.50
2019-05-21T03:20:17.266Z,76.77
2019-05-21T03:22:45.606Z,83.13
2019-05-21T03:25:13.948Z,77.93
2019-05-21T03:27:42.287Z,80.47
2019-05-21T03:30:10.807Z,81.07
2019-05-21T03:32:39.227Z,69.27
2019-05-21T03:35:08.946Z,84.03
2019-05-21T03:37:37.206Z,92.77
2019-05-21T03:40:05.990Z,102.77
2019-05-21T03:42:34.389Z,93.33
2019-05-21T03:45:07.295Z,90.73
2019-05-21T03:47:33.407Z,94.10
2019-05-21T03:50:02.164Z,84.23
2019-05-21T03:52:30.513Z,99.83
2019-05-21T03:55:02.926Z,105.17
2019-05-21T03:57:28.797Z,113.20
2019-05-21T03:59:57.091Z,123.80
2019-05-21T04:02:25.356Z,114.83
2019-05-21T04:04:53.667Z,119.17
2019-05-21T04:07:21.924Z,98.47
2019-05-21T04:09:50.220Z,92.40
2019-05-21T04:12:18.494Z,117.70
2019-05-21T04:14:46.831Z,105.87
2019-05-21T04:17:15.132Z,123.93
2019-05-21T04:19:43.448Z,132.43
2019-05-21T04:22:15.281Z,118.90
2019-05-21T04:24:44.047Z,109.53
2019-05-21T04:27:12.880Z,124.57
2019-05-21T04:29:41.486Z,123.57
2019-05-21T04:32:09.905Z,108.43
2019-05-21T04:34:38.238Z,117.40
2019-05-21T04:37:10.756Z,131.87
2019-05-21T04:39:36.585Z,121.03
2019-05-21T04:42:04.971Z,105.83
2019-05-21T04:44:33.349Z,109.00
2019-05-21T04:47:01.699Z,96.80
2019-05-21T04:49:29.965Z,106.17
2019-05-21T04:51:58.255Z,110.77
2019-05-21T04:54:26.682Z,119.80
2019-05-21T04:56:57.925Z,111.53
2019-05-21T04:59:26.192Z,118.90
2019-05-21T05:01:54.500Z,113.60
2019-05-21T05:04:22.785Z,109.07
2019-05-21T05:06:51.641Z,126.23
2019-05-21T05:09:19.959Z,139.67
2019-05-21T05:11:48.271Z,124.97
2019-05-21T05:14:16.567Z,130.40
2019-05-21T05:16:44.938Z,139.90
2019-05-21T05:19:13.203Z,128.47
2019-05-21T05:21:41.595Z,122.50
2019-05-21T05:24:09.945Z,122.47
2019-05-21T05:26:38.227Z,115.20
2019-05-21T05:29:06.520Z,122.37
2019-05-21T05:31:34.794Z,128.77
2019-05-21T05:34:03.190Z,146.73
2019-05-21T05:36:31.467Z,131.20
2019-05-21T05:38:59.831Z,130.37
2019-05-21T05:41:28.107Z,122.63
2019-05-21T05:43:56.391Z,117.17
2019-05-21T05:46:24.680Z,119.10
2019-05-21T05:48:52.963Z,127.23
2019-05-21T05:51:21.219Z,112.20
2019-05-21T05:53:49.513Z,119.40
2019-05-21T05:56:18.051Z,120.13
2019-05-21T05:58:46.372Z,111.03
2019-05-21T06:01:14.641Z,113.03
2019-05-21T06:03:42.923Z,112.37
2019-05-21T06:06:11.195Z,99.60
2019-05-21T06:08:39.485Z,90.37
2019-05-21T06:11:07.827Z,102.03
2019-05-21T06:13:36.118Z,88.23
2019-05-21T06:16:04.461Z,87.20
2019-05-21T06:18:35.527Z,90.43
2019-05-21T06:21:02.853Z,87.20
2019-05-21T06:23:31.167Z,86.03
2019-05-21T06:25:59.562Z,80.63
2019-05-21T06:28:27.829Z,88.43
2019-05-21T06:30:56.117Z,91.77
2019-05-21T06:33:24.389Z,76.27
2019-05-21T06:35:52.754Z,75.43
2019-05-21T06:38:21.018Z,73.87
2019-05-21T06:40:49.305Z,72.40
2019-05-21T06:43:17.570Z,69.10
2019-05-21T06:45:45.876Z,69.10
2019-05-21T06:48:14.217Z,70.73
2019-05-21T06:50:42.601Z,69.23
2019-05-21T06:53:10.843Z,64.03
2019-05-21T06:55:39.207Z,67.00
2019-05-21T06:58:07.504Z,66.77
2019-05-21T07:00:36.811Z,59.60
2019-05-21T07:03:05.095Z,65.63
2019-05-21T07:05:33.821Z,57.70
2019-05-21T07:08:02.124Z,61.37
2019-05-21T07:10:30.482Z,62.60
2019-05-21T07:12:58.805Z,61.60
2019-05-21T07:15:27.236Z,75.33
2019-05-21T07:17:55.492Z,73.03
2019-05-21T07:20:23.951Z,67.97
2019-05-21T07:22:52.312Z,71.33
2019-05-21T07:25:20.887Z,72.60
2019-05-21T07:27:49.142Z,66.67
2019-05-21T07:30:17.511Z,61.37
2019-05-21T07:32:45.837Z,66.13
2019-05-21T07:35:14.284Z,67.57
2019-05-21T07:37:42.676Z,70.53
2019-05-21T07:40:11.109Z,69.73
2019-05-21T07:42:39.400Z,64.33
2019-05-21T07:45:08.227Z,70.83
2019-05-21T07:47:36.519Z,62.83
2019-05-21T07:50:05.356Z,71.20
2019-05-21T07:52:33.665Z,73.03
2019-05-21T07:55:02.014Z,72.03
2019-05-21T07:57:30.354Z,68.57
2019-05-21T07:59:58.615Z,105.10
2019-05-21T08:02:26.938Z,102.90
2019-05-21T08:04:55.294Z,89.27
2019-05-21T08:07:23.598Z,85.47
2019-05-21T08:09:51.916Z,93.13
2019-05-21T08:12:37.206Z,84.47
2019-05-21T08:14:50.187Z,84.20
2019-05-21T08:17:18.489Z,86.90
2019-05-21T08:19:49.689Z,76.20
2019-05-21T08:22:17.960Z,76.23
2019-05-21T08:24:46.315Z,79.37
2019-05-21T08:27:14.591Z,93.33
2019-05-21T08:29:42.902Z,76.83
2019-05-21T08:32:11.247Z,60.47
2019-05-21T08:34:39.576Z,65.83
2019-05-21T08:37:07.839Z,63.10
2019-05-21T08:39:36.195Z,73.33
2019-05-21T08:42:04.471Z,68.33
2019-05-21T08:44:32.744Z,62.73
2019-05-21T08:47:01.019Z,71.80
2019-05-21T08:49:29.388Z,70.90
2019-05-21T08:51:57.721Z,66.93
2019-05-21T08:54:26.017Z,56.70
2019-05-21T08:56:54.315Z,65.97
2019-05-21T08:59:22.704Z,62.33
2019-05-21T09:01:51.039Z,68.77
2019-05-21T09:04:19.373Z,64.20
2019-05-21T09:06:47.784Z,63.93
2019-05-21T09:09:16.089Z,69.70
2019-05-21T09:11:44.407Z,71.37
2019-05-21T09:14:12.771Z,69.20
2019-05-21T09:16:41.057Z,65.57
2019-05-21T09:19:09.347Z,73.30
2019-05-21T09:21:37.652Z,79.13
2019-05-21T09:24:05.976Z,67.50
2019-05-21T09:26:34.260Z,65.80
2019-05-21T09:29:02.557Z,69.60
2019-05-21T09:31:30.855Z,76.83
2019-05-21T09:33:59.227Z,75.23
2019-05-21T09:36:28.164Z,71.60
2019-05-21T09:38:56.564Z,67.80
2019-05-21T09:41:24.860Z,68.50
2019-05-21T09:43:53.132Z,63.43
2019-05-21T09:46:21.412Z,90.50
2019-05-21T09:48:49.680Z,89.87
2019-05-21T09:51:20.108Z,96.90
2019-05-21T09:53:47.929Z,81.83
2019-05-21T09:56:16.229Z,80.83
2019-05-21T09:58:44.505Z,82.13
2019-05-21T10:01:12.888Z,70.80
2019-05-21T10:03:41.182Z,73.20
2019-05-21T10:06:09.601Z,89.83
2019-05-21T10:08:37.927Z,63.80
2019-05-21T10:11:06.237Z,73.40
2019-05-21T10:13:34.495Z,87.07
2019-05-21T10:16:02.895Z,87.90
2019-05-21T10:18:31.180Z,85.87
2019-05-21T10:20:59.571Z,85.57
2019-05-21T10:23:27.893Z,90.43
2019-05-21T10:25:56.190Z,66.40
2019-05-21T10:28:24.447Z,79.83
2019-05-21T10:30:52.740Z,72.50
2019-05-21T10:33:21.108Z,86.73
2019-05-21T10:35:49.407Z,76.83
2019-05-21T10:38:17.787Z,81.37
2019-05-21T10:40:46.132Z,82.10
2019-05-21T10:43:14.475Z,86.77
2019-05-21T10:45:42.809Z,80.70
2019-05-21T10:48:11.096Z,74.40
2019-05-21T10:50:39.379Z,76.83
2019-05-21T10:53:07.746Z,78.43
2019-05-21T10:55:36.015Z,75.50
2019-05-21T10:58:04.517Z,76.83
2019-05-21T11:00:32.920Z,69.07
2019-05-21T11:03:01.215Z,71.87
2019-05-21T11:05:29.623Z,71.93
2019-05-21T11:08:20.772Z,67.63
2019-05-21T11:10:27.947Z,76.53
2019-05-21T11:12:56.263Z,77.53
2019-05-21T11:15:24.544Z,66.07
2019-05-21T11:18:09.144Z,68.80
2019-05-21T11:20:23.053Z,73.13
2019-05-21T11:22:51.448Z,71.17
2019-05-21T11:25:19.711Z,67.50
2019-05-21T11:27:48.119Z,63.10
2019-05-21T11:30:16.546Z,62.83
2019-05-21T11:32:47.807Z,61.07
2019-05-21T11:35:15.431Z,63.83
2019-05-21T11:37:47.657Z,58.30
2019-05-21T11:40:14.072Z,56.30
2019-05-21T11:42:42.462Z,58.17
2019-05-21T11:45:10.814Z,57.63
2019-05-21T11:47:39.127Z,57.03
2019-05-21T11:50:07.720Z,68.97
2019-05-21T11:52:36.231Z,64.33
2019-05-21T11:55:04.880Z,56.07
2019-05-21T11:57:33.211Z,56.83
2019-05-21T12:00:01.663Z,59.67
2019-05-21T12:02:29.988Z,59.80
2019-05-21T12:04:58.287Z,54.33
2019-05-21T12:07:26.556Z,57.23
2019-05-21T12:09:54.843Z,58.83
2019-05-21T12:12:23.120Z,58.33
2019-05-21T12:14:51.436Z,64.83
2019-05-21T12:17:19.676Z,58.67
2019-05-21T12:19:47.996Z,65.20
2019-05-21T12:22:16.347Z,57.53
2019-05-21T12:24:44.666Z,67.80
2019-05-21T12:27:13.000Z,61.80
2019-05-21T12:29:41.291Z,58.57
2019-05-21T12:32:09.567Z,67.03
2019-05-21T12:34:39.028Z,77.63
2019-05-21T12:37:07.457Z,69.27
2019-05-21T12:39:35.834Z,76.10
2019-05-21T12:42:04.112Z,69.83
2019-05-21T12:44:32.455Z,76.37
2019-05-21T12:47:01.310Z,64.00
2019-05-21T12:49:29.673Z,71.30
2019-05-21T12:51:58.021Z,69.60
2019-05-21T12:54:26.316Z,58.40
2019-05-21T12:56:54.637Z,67.20
2019-05-21T12:59:22.899Z,69.77
2019-05-21T13:01:51.204Z,62.63
2019-05-21T13:04:19.551Z,68.93
2019-05-21T13:06:47.943Z,63.60
2019-05-21T13:09:31.396Z,72.07
2019-05-21T13:11:46.293Z,75.07
2019-05-21T13:14:18.524Z,72.60
2019-05-21T13:16:44.528Z,63.90
2019-05-21T13:19:12.951Z,58.53
2019-05-21T13:21:41.298Z,75.37
2019-05-21T13:24:09.628Z,63.57
2019-05-21T13:26:38.020Z,57.90
2019-05-21T13:29:06.330Z,61.60
2019-05-21T13:31:34.654Z,63.00
2019-05-21T13:34:03.023Z,67.63
2019-05-21T13:36:31.377Z,55.03
2019-05-21T13:38:59.746Z,56.30
2019-05-21T13:41:28.010Z,57.80
2019-05-21T13:43:56.296Z,55.07
2019-05-21T13:46:24.578Z,52.03
2019-05-21T13:48:52.950Z,52.30
2019-05-21T13:51:21.293Z,57.87
2019-05-21T13:53:49.660Z,53.63
2019-05-21T13:56:18.000Z,53.60
2019-05-21T13:58:46.449Z,49.70
2019-05-21T14:01:16.137Z,59.07
2019-05-21T14:03:44.727Z,52.27
2019-05-21T14:06:13.071Z,53.40
2019-05-21T14:08:41.377Z,52.40
2019-05-21T14:11:09.627Z,49.77
2019-05-21T14:13:37.983Z,56.73
2019-05-21T14:16:06.267Z,60.23
2019-05-21T14:18:34.587Z,56.87
2019-05-21T14:21:02.997Z,56.07
2019-05-21T14:23:31.284Z,53.70
2019-05-21T14:25:59.706Z,54.33
2019-05-21T14:28:28.120Z,57.37
2019-05-21T14:30:56.514Z,55.93
2019-05-21T14:33:24.782Z,52.87
2019-05-21T14:35:53.068Z,52.43
2019-05-21T14:38:21.342Z,48.73
2019-05-21T14:40:49.712Z,49.63
2019-05-21T14:43:17.967Z,56.07
2019-05-21T14:45:46.295Z,49.77
2019-05-21T14:48:14.560Z,51.43
2019-05-21T14:50:42.872Z,52.57
2019-05-21T14:53:11.288Z,50.57
2019-05-21T14:55:39.687Z,46.57
2019-05-21T14:58:08.003Z,47.87
2019-05-21T15:00:36.726Z,47.93
2019-05-21T15:03:05.003Z,47.03
2019-05-21T15:05:33.872Z,44.67
2019-05-21T15:08:03.156Z,49.83
2019-05-21T15:10:47.308Z,53.53
2019-05-21T15:13:05.738Z,47.73
2019-05-21T15:15:32.005Z,49.43
2019-05-21T15:18:00.264Z,52.07
2019-05-21T15:20:28.637Z,46.87
2019-05-21T15:22:57.043Z,49.63
2019-05-21T15:25:25.446Z,51.97
2019-05-21T15:27:53.723Z,47.23
2019-05-21T15:30:22.063Z,47.43
2019-05-21T15:32:50.480Z,48.50
2019-05-21T15:35:18.768Z,45.73
2019-05-21T15:37:47.136Z,48.27
2019-05-21T15:40:15.469Z,48.30
2019-05-21T15:42:43.845Z,51.83
2019-05-21T15:45:12.390Z,49.47
2019-05-21T15:47:40.772Z,51.07
2019-05-21T15:50:09.080Z,55.70
2019-05-21T15:52:37.478Z,52.17
2019-05-21T15:55:07.290Z,57.73
2019-05-21T15:57:36.117Z,68.00
2019-05-21T16:00:05.927Z,76.20
2019-05-21T16:02:34.214Z,64.10
2019-05-21T16:05:03.439Z,67.40
2019-05-21T16:07:31.756Z,80.97
2019-05-21T16:10:00.097Z,72.47
2019-05-21T16:12:28.395Z,103.27
2019-05-21T16:14:56.735Z,130.17
2019-05-21T16:17:25.110Z,118.87
2019-05-21T16:19:53.433Z,98.10
2019-05-21T16:22:21.787Z,109.60
2019-05-21T16:24:50.084Z,122.83
2019-05-21T16:27:18.370Z,115.60
2019-05-21T16:29:46.700Z,92.43
2019-05-21T16:32:14.983Z,108.73
2019-05-21T16:34:43.387Z,120.27
2019-05-21T16:37:11.778Z,100.83
2019-05-21T16:39:40.147Z,96.67
2019-05-21T16:42:08.479Z,101.03
2019-05-21T16:44:36.845Z,90.43
2019-05-21T16:47:05.148Z,70.20
2019-05-21T16:49:33.517Z,100.37
2019-05-21T16:52:02.478Z,129.75
2019-05-21T16:54:30.824Z,108.13
2019-05-21T16:56:59.175Z,109.30
2019-05-21T16:59:27.471Z,97.33
2019-05-21T17:01:55.827Z,78.73
2019-05-21T17:04:24.214Z,112.50
2019-05-21T17:06:52.512Z,85.27
2019-05-21T17:09:20.969Z,71.87
2019-05-21T17:11:59.639Z,76.20
2019-05-21T17:14:19.484Z,96.63
2019-05-21T17:16:47.763Z,78.53
2019-05-21T17:19:16.042Z,80.60
2019-05-21T17:21:44.385Z,61.83
2019-05-21T17:24:12.726Z,66.70
2019-05-21T17:26:43.025Z,58.90
2019-05-21T17:29:11.004Z,50.30
2019-05-21T17:31:39.313Z,51.70
2019-05-21T17:34:07.632Z,49.70
2019-05-21T17:36:35.960Z,57.37
2019-05-21T17:39:05.272Z,49.10
2019-05-21T17:41:33.586Z,41.80
2019-05-21T17:44:02.026Z,42.97
2019-05-21T17:46:30.342Z,53.40
2019-05-21T17:48:58.664Z,40.73
2019-05-21T17:51:27.016Z,40.57
2019-05-21T17:53:55.387Z,43.37
2019-05-21T17:56:23.834Z,47.50
2019-05-21T17:58:52.141Z,43.97
2019-05-21T18:01:20.470Z,46.83
2019-05-21T18:03:48.818Z,43.77
2019-05-21T18:06:17.223Z,39.07
2019-05-21T18:08:45.857Z,36.23
2019-05-21T18:11:14.490Z,39.23
2019-05-21T18:13:42.847Z,49.07
2019-05-21T18:16:11.235Z,38.63
2019-05-21T18:18:39.584Z,39.67
2019-05-21T18:21:07.953Z,38.23
2019-05-21T18:23:36.477Z,39.17
2019-05-21T18:26:04.940Z,40.73
2019-05-21T18:28:34.256Z,37.83
2019-05-21T18:31:02.647Z,39.73
2019-05-21T18:33:31.077Z,32.73
2019-05-21T18:35:59.518Z,35.30
2019-05-21T18:38:27.930Z,34.60
2019-05-21T18:40:56.321Z,34.27
2019-05-21T18:43:24.700Z,31.23
2019-05-21T18:45:52.962Z,35.83
2019-05-21T18:48:21.351Z,32.37
2019-05-21T18:50:49.682Z,28.67
2019-05-21T18:53:18.167Z,28.23
2019-05-21T18:55:46.518Z,34.63
2019-05-21T18:58:17.207Z,33.70
2019-05-21T19:00:44.878Z,28.57
2019-05-21T19:03:13.315Z,27.97
2019-05-21T19:05:41.911Z,26.17
2019-05-21T19:08:10.338Z,29.70
2019-05-21T19:10:38.704Z,27.87
2019-05-21T19:13:07.083Z,31.63
2019-05-21T19:15:35.415Z,32.60
2019-05-21T19:18:03.734Z,28.23
2019-05-21T19:20:32.115Z,34.33
2019-05-21T19:23:00.551Z,29.77
2019-05-21T19:25:28.825Z,29.50
2019-05-21T19:27:57.174Z,27.97
2019-05-21T19:30:25.649Z,25.33
2019-05-21T19:32:54.058Z,27.70
2019-05-21T19:35:22.451Z,24.53
2019-05-21T19:37:53.639Z,26.73
2019-05-21T19:40:22.078Z,31.13
2019-05-21T19:42:55.097Z,24.70
2019-05-21T19:45:20.407Z,33.90
2019-05-21T19:47:48.796Z,30.37
2019-05-21T19:50:17.172Z,33.77
2019-05-21T19:52:48.415Z,29.83
2019-05-21T19:55:17.450Z,30.40
2019-05-21T19:57:46.004Z,32.03
2019-05-21T20:00:15.915Z,29.70
2019-05-21T20:02:48.608Z,34.17
2019-05-21T20:05:17.218Z,30.73
2019-05-21T20:07:45.633Z,26.37
2019-05-21T20:10:14.158Z,36.73
2019-05-21T20:12:42.525Z,31.33
2019-05-21T20:15:11.499Z,31.77
2019-05-21T20:17:40.556Z,34.90
2019-05-21T20:20:12.236Z,31.67
2019-05-21T20:22:40.627Z,32.33
2019-05-21T20:25:09.724Z,33.63
2019-05-21T20:27:38.069Z,29.27
2019-05-21T20:30:12.666Z,28.47
2019-05-21T20:32:36.900Z,34.53
2019-05-21T20:35:05.636Z,32.83
2019-05-21T20:37:34.839Z,35.03
2019-05-21T20:40:04.702Z,32.97
2019-05-21T20:42:33.258Z,34.30
2019-05-21T20:45:01.806Z,33.93
2019-05-21T20:47:30.255Z,31.67
2019-05-21T20:49:58.719Z,34.37
2019-05-21T20:52:27.184Z,36.40
2019-05-21T20:54:55.458Z,29.90
2019-05-21T20:57:23.842Z,30.43
2019-05-21T20:59:52.125Z,35.17
2019-05-21T21:02:20.668Z,31.60
2019-05-21T21:04:49.014Z,35.93
2019-05-21T21:07:17.699Z,32.93
2019-05-21T21:09:46.052Z,34.47
2019-05-21T21:12:14.911Z,39.10
2019-05-21T21:14:44.768Z,33.30
2019-05-21T21:17:13.292Z,40.73
2019-05-21T21:19:41.579Z,36.37
2019-05-21T21:22:09.959Z,36.00
2019-05-21T21:24:38.738Z,31.20
2019-05-21T21:27:07.274Z,40.07
2019-05-21T21:29:35.651Z,36.90
2019-05-21T21:32:04.023Z,35.40
2019-05-21T21:34:32.390Z,37.37
2019-05-21T21:37:00.932Z,40.33
2019-05-21T21:39:29.301Z,40.20
2019-05-21T21:41:57.643Z,38.57
2019-05-21T21:44:34.005Z,42.00
2019-05-21T21:46:56.145Z,40.73
2019-05-21T21:49:25.978Z,39.13
2019-05-21T21:51:55.788Z,34.77
2019-05-21T21:54:24.079Z,34.23
2019-05-21T21:56:52.344Z,37.87
2019-05-21T21:59:20.643Z,32.90
2019-05-21T22:01:50.455Z,40.47
2019-05-21T22:04:20.619Z,36.70
2019-05-21T22:06:49.246Z,37.20
2019-05-21T22:09:18.013Z,38.40
2019-05-21T22:11:46.356Z,41.43
2019-05-21T22:14:14.643Z,35.87
2019-05-21T22:16:42.945Z,37.00
2019-05-21T22:19:11.823Z,37.63
2019-05-21T22:21:40.090Z,35.53
2019-05-21T22:24:08.451Z,38.47
2019-05-21T22:26:36.721Z,38.23
2019-05-21T22:29:05.627Z,35.63
2019-05-21T22:31:33.990Z,36.50
2019-05-21T22:34:02.245Z,47.43
2019-05-21T22:36:30.545Z,42.60
2019-05-21T22:38:58.936Z,51.93
2019-05-21T22:41:27.253Z,49.43
2019-05-21T22:43:55.545Z,44.60
2019-05-21T22:46:23.937Z,46.70
2019-05-21T22:48:52.267Z,42.93
2019-05-21T22:51:20.576Z,44.17
2019-05-21T22:53:48.831Z,50.87
2019-05-21T22:56:17.126Z,47.37
2019-05-21T22:58:45.388Z,52.40
2019-05-21T23:01:13.772Z,46.30
2019-05-21T23:03:42.047Z,46.43
2019-05-21T23:06:10.323Z,47.57
2019-05-21T23:08:38.622Z,47.13
2019-05-21T23:11:06.976Z,47.40
2019-05-21T23:13:35.244Z,46.53
2019-05-21T23:16:03.608Z,53.00
2019-05-21T23:18:31.890Z,49.33
2019-05-21T23:21:00.400Z,47.30
2019-05-21T23:23:28.698Z,48.67
2019-05-21T23:25:57.265Z,51.13
2019-05-21T23:28:25.624Z,47.50
2019-05-21T23:30:53.904Z,50.90
2019-05-21T23:33:22.245Z,48.33
2019-05-21T23:35:50.518Z,51.10
2019-05-21T23:38:18.813Z,47.73
2019-05-21T23:40:47.651Z,56.60
2019-05-21T23:43:16.399Z,52.67
2019-05-21T23:45:44.711Z,53.17
2019-05-21T23:48:13.055Z,52.63
2019-05-21T23:50:41.430Z,53.80
2019-05-21T23:53:09.792Z,50.57
2019-05-21T23:55:38.121Z,53.00
2019-05-21T23:58:06.643Z,52.90
